sensor_id;sensor_type;location;lat;lon;timestamp;pressure;altitude;pressure_sealevel;temperature;humidity
71504;BME280;59323;50.874;7.028;2023-11-21T06:24:35;100894.28;;;7.78;100.00
71504;BME280;59323;50.874;7.028;2023-11-21T06:27:04;100886.41;;;7.73;100.00
71504;BME280;59323;50.874;7.028;2023-11-21T06:29:30;100897.66;;;7.75;100.00
71504;BME280;59323;50.874;7.028;2023-11-21T06:32:02;100896.88;;;7.74;100.00
71504;BME280;59323;50.874;7.028;2023-11-21T06:34:33;100910.94;;;7.80;100.00
71504;BME280;59323;50.874;7.028;2023-11-21T06:37:22;100906.22;;;7.77;100.00
71504;BME280;59323;50.874;7.028;2023-11-21T06:39:53;100905.56;;;7.68;100.00
71504;BME280;59323;50.874;7.028;2023-11-21T06:42:20;100907.03;;;7.65;100.00
71504;BME280;59323;50.874;7.028;2023-11-21T06:47:21;100934.41;;;7.76;100.00
71504;BME280;59323;50.874;7.028;2023-11-21T06:49:46;100924.94;;;7.70;100.00
71504;BME280;59323;50.874;7.028;2023-11-21T06:52:13;100929.22;;;7.71;100.00
71504;BME280;59323;50.874;7.028;2023-11-21T06:54:39;100938.56;;;7.73;100.00
71504;BME280;59323;50.874;7.028;2023-11-21T06:57:05;100935.53;;;7.75;100.00
71504;BME280;59323;50.874;7.028;2023-11-21T06:59:31;100939.72;;;7.72;100.00
71504;BME280;59323;50.874;7.028;2023-11-21T07:01:57;100935.75;;;7.70;100.00
71504;BME280;59323;50.874;7.028;2023-11-21T07:04:23;100928.78;;;7.69;100.00
71504;BME280;59323;50.874;7.028;2023-11-21T07:06:51;100948.59;;;7.73;100.00
71504;BME280;59323;50.874;7.028;2023-11-21T07:09:17;100963.81;;;7.77;100.00
71504;BME280;59323;50.874;7.028;2023-11-21T07:11:43;100957.28;;;7.78;100.00
71504;BME280;59323;50.874;7.028;2023-11-21T07:14:08;100965.41;;;7.78;100.00
71504;BME280;59323;50.874;7.028;2023-11-21T07:16:37;100971.50;;;7.75;100.00
71504;BME280;59323;50.874;7.028;2023-11-21T07:19:06;100962.47;;;7.71;100.00
71504;BME280;59323;50.874;7.028;2023-11-21T07:37:18;101004.72;;;7.76;100.00
71504;BME280;59323;50.874;7.028;2023-11-21T07:39:49;101014.09;;;7.78;100.00
71504;BME280;59323;50.874;7.028;2023-11-21T07:42:15;101013.31;;;7.78;100.00
71504;BME280;59323;50.874;7.028;2023-11-21T07:44:42;101021.41;;;7.78;100.00
71504;BME280;59323;50.874;7.028;2023-11-21T07:47:07;101017.59;;;7.79;100.00
71504;BME280;59323;50.874;7.028;2023-11-21T07:49:33;101020.09;;;7.84;100.00
71504;BME280;59323;50.874;7.028;2023-11-21T07:51:59;101021.00;;;7.88;100.00
71504;BME280;59323;50.874;7.028;2023-11-21T07:54:24;101014.69;;;7.84;100.00
71504;BME280;59323;50.874;7.028;2023-11-21T07:56:52;101017.50;;;7.87;100.00
71504;BME280;59323;50.874;7.028;2023-11-21T07:59:18;101019.28;;;7.95;100.00
71504;BME280;59323;50.874;7.028;2023-11-21T08:01:44;101012.53;;;7.89;100.00
71504;BME280;59323;50.874;7.028;2023-11-21T08:04:11;101024.72;;;7.95;100.00
71504;BME280;59323;50.874;7.028;2023-11-21T08:06:36;101029.00;;;7.97;100.00
71504;BME280;59323;50.874;7.028;2023-11-21T08:13:19;101033.38;;;8.01;100.00
71504;BME280;59323;50.874;7.028;2023-11-21T08:16:42;101025.59;;;8.00;100.00
71504;BME280;59323;50.874;7.028;2023-11-21T08:19:10;101031.13;;;8.03;100.00
71504;BME280;59323;50.874;7.028;2023-11-21T08:21:36;101048.25;;;8.07;100.00
71504;BME280;59323;50.874;7.028;2023-11-21T08:24:05;101052.66;;;8.12;100.00
71504;BME280;59323;50.874;7.028;2023-11-21T08:26:31;101050.28;;;8.10;100.00
71504;BME280;59323;50.874;7.028;2023-11-21T08:29:12;101047.59;;;8.10;100.00
71504;BME280;59323;50.874;7.028;2023-11-21T08:31:39;101066.31;;;8.15;100.00
71504;BME280;59323;50.874;7.028;2023-11-21T08:34:06;101085.13;;;8.24;100.00
71504;BME280;59323;50.874;7.028;2023-11-21T08:44:32;101091.25;;;8.33;100.00
71504;BME280;59323;50.874;7.028;2023-11-21T09:33:31;101136.44;;;8.81;100.00
71504;BME280;59323;50.874;7.028;2023-11-21T09:35:57;101123.59;;;8.78;100.00
71504;BME280;59323;50.874;7.028;2023-11-21T09:38:26;101131.03;;;8.81;100.00
71504;BME280;59323;50.874;7.028;2023-11-21T09:40:57;101148.63;;;8.87;100.00
71504;BME280;59323;50.874;7.028;2023-11-21T09:43:30;101153.13;;;8.96;100.00
71504;BME280;59323;50.874;7.028;2023-11-21T09:46:15;101151.56;;;8.95;100.00
71504;BME280;59323;50.874;7.028;2023-11-21T09:48:48;101151.22;;;8.96;100.00
71504;BME280;59323;50.874;7.028;2023-11-21T09:51:19;101145.00;;;8.96;100.00
71504;BME280;59323;50.874;7.028;2023-11-21T09:53:46;101148.84;;;8.95;100.00
71504;BME280;59323;50.874;7.028;2023-11-21T09:56:14;101159.22;;;8.93;100.00
71504;BME280;59323;50.874;7.028;2023-11-21T09:58:48;101153.13;;;8.96;100.00
71504;BME280;59323;50.874;7.028;2023-11-21T10:01:16;101167.56;;;9.00;100.00
71504;BME280;59323;50.874;7.028;2023-11-21T10:03:46;101169.94;;;9.01;100.00
71504;BME280;59323;50.874;7.028;2023-11-21T10:06:13;101153.13;;;8.96;100.00
71504;BME280;59323;50.874;7.028;2023-11-21T10:08:42;101154.03;;;9.00;100.00
71504;BME280;59323;50.874;7.028;2023-11-21T10:11:12;101155.59;;;9.01;100.00
71504;BME280;59323;50.874;7.028;2023-11-21T10:13:39;101163.50;;;9.06;100.00
71504;BME280;59323;50.874;7.028;2023-11-21T10:16:07;101157.38;;;9.09;100.00
71504;BME280;59323;50.874;7.028;2023-11-21T10:18:37;101151.84;;;9.05;100.00
71504;BME280;59323;50.874;7.028;2023-11-21T10:21:09;101157.97;;;9.02;100.00
71504;BME280;59323;50.874;7.028;2023-11-21T10:23:35;101152.00;;;8.97;100.00
71504;BME280;59323;50.874;7.028;2023-11-21T10:26:08;101162.69;;;9.05;100.00
71504;BME280;59323;50.874;7.028;2023-11-21T14:16:34;101318.72;;;9.67;100.00
71504;BME280;59323;50.874;7.028;2023-11-21T16:26:14;101453.06;;;9.25;100.00
71504;BME280;59323;50.874;7.028;2023-11-21T16:29:33;101464.25;;;9.23;100.00
71504;BME280;59323;50.874;7.028;2023-11-21T16:35:55;101469.09;;;9.30;100.00
71504;BME280;59323;50.874;7.028;2023-11-21T17:27:39;101553.94;;;9.18;100.00
71504;BME280;59323;50.874;7.028;2023-11-21T17:46:11;101593.75;;;9.05;100.00
71504;BME280;59323;50.874;7.028;2023-11-21T17:49:14;101591.91;;;8.97;100.00
71504;BME280;59323;50.874;7.028;2023-11-21T17:51:50;101615.09;;;9.07;100.00
71504;BME280;59323;50.874;7.028;2023-11-21T17:54:25;101612.59;;;9.02;100.00
71504;BME280;59323;50.874;7.028;2023-11-21T17:57:04;101601.38;;;8.91;100.00
71504;BME280;59323;50.874;7.028;2023-11-21T18:00:03;101607.66;;;8.83;100.00
71504;BME280;59323;50.874;7.028;2023-11-21T18:03:28;101627.75;;;8.82;100.00
71504;BME280;59323;50.874;7.028;2023-11-21T18:13:55;101637.25;;;8.67;100.00
71504;BME280;59323;50.874;7.028;2023-11-21T19:07:21;101771.91;;;8.03;100.00
71504;BME280;59323;50.874;7.028;2023-11-21T19:09:48;101769.38;;;7.98;100.00
71504;BME280;59323;50.874;7.028;2023-11-21T19:12:14;101776.22;;;7.95;100.00
71504;BME280;59323;50.874;7.028;2023-11-21T19:14:40;101781.34;;;7.88;100.00
71504;BME280;59323;50.874;7.028;2023-11-21T19:17:06;101787.22;;;7.81;100.00
71504;BME280;59323;50.874;7.028;2023-11-21T19:19:32;101785.44;;;7.77;100.00
71504;BME280;59323;50.874;7.028;2023-11-21T19:21:57;101793.25;;;7.70;100.00
71504;BME280;59323;50.874;7.028;2023-11-21T19:24:23;101795.47;;;7.68;100.00
71504;BME280;59323;50.874;7.028;2023-11-21T19:26:48;101801.22;;;7.57;100.00
71504;BME280;59323;50.874;7.028;2023-11-21T19:29:14;101812.19;;;7.52;100.00
71504;BME280;59323;50.874;7.028;2023-11-21T19:31:40;101814.25;;;7.47;100.00
71504;BME280;59323;50.874;7.028;2023-11-21T19:34:08;101812.97;;;7.44;100.00
71504;BME280;59323;50.874;7.028;2023-11-21T19:36:58;101827.13;;;7.41;100.00
71504;BME280;59323;50.874;7.028;2023-11-21T19:50:34;101836.47;;;7.18;100.00
71504;BME280;59323;50.874;7.028;2023-11-21T19:53:00;101830.50;;;7.07;100.00
71504;BME280;59323;50.874;7.028;2023-11-21T19:55:26;101833.53;;;7.06;100.00
71504;BME280;59323;50.874;7.028;2023-11-21T19:57:51;101838.44;;;7.04;100.00
71504;BME280;59323;50.874;7.028;2023-11-21T20:00:17;101842.91;;;6.99;100.00
71504;BME280;59323;50.874;7.028;2023-11-21T20:02:43;101842.09;;;6.99;100.00
71504;BME280;59323;50.874;7.028;2023-11-21T20:05:11;101851.63;;;6.96;100.00
71504;BME280;59323;50.874;7.028;2023-11-21T20:07:43;101849.84;;;6.92;100.00
71504;BME280;59323;50.874;7.028;2023-11-21T20:10:09;101852.56;;;6.92;100.00
71504;BME280;59323;50.874;7.028;2023-11-21T20:12:34;101863.50;;;6.87;100.00
71504;BME280;59323;50.874;7.028;2023-11-21T20:15:00;101867.00;;;6.87;100.00
71504;BME280;59323;50.874;7.028;2023-11-21T20:17:25;101867.13;;;6.82;100.00
71504;BME280;59323;50.874;7.028;2023-11-21T20:19:52;101868.72;;;6.83;100.00
71504;BME280;59323;50.874;7.028;2023-11-21T20:22:18;101879.22;;;6.85;100.00
71504;BME280;59323;50.874;7.028;2023-11-21T20:24:44;101882.88;;;6.80;100.00
71504;BME280;59323;50.874;7.028;2023-11-21T20:27:09;101889.38;;;6.79;100.00
71504;BME280;59323;50.874;7.028;2023-11-21T20:29:35;101894.28;;;6.77;100.00
71504;BME280;59323;50.874;7.028;2023-11-21T20:32:03;101908.59;;;6.78;100.00
71504;BME280;59323;50.874;7.028;2023-11-21T20:34:33;101913.50;;;6.76;100.00
71504;BME280;59323;50.874;7.028;2023-11-21T20:36:59;101912.72;;;6.75;100.00
71504;BME280;59323;50.874;7.028;2023-11-21T20:39:24;101915.09;;;6.77;100.00
71504;BME280;59323;50.874;7.028;2023-11-21T20:41:50;101915.09;;;6.77;100.00
71504;BME280;59323;50.874;7.028;2023-11-21T20:44:15;101913.50;;;6.76;100.00
71504;BME280;59323;50.874;7.028;2023-11-21T20:46:41;101922.72;;;6.75;100.00
71504;BME280;59323;50.874;7.028;2023-11-21T20:49:14;101920.69;;;6.80;100.00
71504;BME280;59323;50.874;7.028;2023-11-21T20:51:43;101919.84;;;6.71;100.00
71504;BME280;59323;50.874;7.028;2023-11-21T20:54:12;101932.72;;;6.74;100.00
71504;BME280;59323;50.874;7.028;2023-11-21T20:56:38;101929.22;;;6.74;100.00
71504;BME280;59323;50.874;7.028;2023-11-21T20:59:04;101938.13;;;6.74;100.00
71504;BME280;59323;50.874;7.028;2023-11-21T21:01:44;101939.72;;;6.75;100.00
71504;BME280;59323;50.874;7.028;2023-11-21T21:04:13;101952.31;;;6.80;100.00
71504;BME280;59323;50.874;7.028;2023-11-21T21:06:40;101952.44;;;6.75;100.00
71504;BME280;59323;50.874;7.028;2023-11-21T21:09:08;101946.06;;;6.71;100.00
71504;BME280;59323;50.874;7.028;2023-11-21T21:11:35;101946.22;;;6.74;100.00
71504;BME280;59323;50.874;7.028;2023-11-21T21:14:04;101955.25;;;6.70;100.00
71504;BME280;59323;50.874;7.028;2023-11-21T21:16:30;101978.53;;;6.79;100.00
71504;BME280;59323;50.874;7.028;2023-11-21T21:19:02;101965.13;;;6.74;100.00
71504;BME280;59323;50.874;7.028;2023-11-21T21:21:32;101981.53;;;6.78;100.00
71504;BME280;59323;50.874;7.028;2023-11-21T21:23:58;101976.94;;;6.78;100.00
71504;BME280;59323;50.874;7.028;2023-11-21T21:26:25;101974.34;;;6.73;100.00
71504;BME280;59323;50.874;7.028;2023-11-21T21:28:51;101963.97;;;6.66;100.00
71504;BME280;59323;50.874;7.028;2023-11-21T21:31:18;101970.34;;;6.71;100.00
71504;BME280;59323;50.874;7.028;2023-11-21T21:33:46;101958.44;;;6.72;100.00
71504;BME280;59323;50.874;7.028;2023-11-21T21:36:13;101965.25;;;6.69;100.00
71504;BME280;59323;50.874;7.028;2023-11-21T21:38:42;101963.38;;;6.70;100.00
71504;BME280;59323;50.874;7.028;2023-11-21T21:41:13;101978.66;;;6.74;100.00
71504;BME280;59323;50.874;7.028;2023-11-21T21:43:49;101970.19;;;6.67;100.00
71504;BME280;59323;50.874;7.028;2023-11-21T21:46:18;101980.69;;;6.68;100.00
71504;BME280;59323;50.874;7.028;2023-11-21T21:48:47;101964.41;;;6.60;100.00
71504;BME280;59323;50.874;7.028;2023-11-21T21:51:20;101964.91;;;6.62;100.00
71504;BME280;59323;50.874;7.028;2023-11-21T21:53:48;101977.97;;;6.68;100.00
71504;BME280;59323;50.874;7.028;2023-11-21T21:56:19;101985.41;;;6.63;100.00
71504;BME280;59323;50.874;7.028;2023-11-21T21:58:44;101984.41;;;6.59;100.00
71504;BME280;59323;50.874;7.028;2023-11-21T22:01:19;101980.25;;;6.53;100.00
71504;BME280;59323;50.874;7.028;2023-11-21T22:04:28;101999.81;;;6.58;100.00
71504;BME280;59323;50.874;7.028;2023-11-21T23:35:34;102091.88;;;5.93;100.00
71504;BME280;59323;50.874;7.028;2023-11-21T23:38:00;102103.19;;;5.95;100.00
71504;BME280;59323;50.874;7.028;2023-11-21T23:40:26;102102.38;;;5.95;100.00
71504;BME280;59323;50.874;7.028;2023-11-21T23:42:51;102091.16;;;5.88;100.00
71504;BME280;59323;50.874;7.028;2023-11-21T23:45:16;102095.97;;;5.91;100.00
71504;BME280;59323;50.874;7.028;2023-11-21T23:47:42;102096.28;;;5.89;100.00
71504;BME280;59323;50.874;7.028;2023-11-21T23:50:08;102109.47;;;5.91;100.00
71504;BME280;59323;50.874;7.028;2023-11-21T23:52:33;102107.91;;;5.85;100.00
71504;BME280;59323;50.874;7.028;2023-11-21T23:54:59;102116.53;;;5.87;100.00
71504;BME280;59323;50.874;7.028;2023-11-21T23:57:24;102121.84;;;5.92;100.00
71504;BME280;59323;50.874;7.028;2023-11-21T23:59:50;102127.25;;;5.92;100.00
